Flight Number: EUR1154 Duration: 1:00
Departure: Budapest Ferihegy (LHBP) at 08:15 Distance: 343 Nm
Arrival: Skopje Airport (LWSK) at 09:15 Equipment: A321

Weather Information
404 Not Found

Not Found

The requested URL /data/observations/metar/decoded/LHBP.TXT was not found on this server.


Sunrise: 03:03 Sunset: 18:15 (UTC)

Skopje-Petrovec, Macedonia, The Republic of (LWSK) 41-58N 021-39E 239M May 20, 2018 - 10:00 AM EDT / 2018.05.20 1400 UTC
Wind: from the W (280 degrees) at 2 MPH (2 KT):0
Visibility: greater than 7 mile(s):0
Sky conditions: mostly clear Temperature: 80 F (27 C) Dew Point: 48 F (9 C) Relative Humidity: 32% Pressure (altimeter): 29.94 in. Hg (1014 hPa)
ob: LWSK 201400Z 28002KT 9999 FEW040 27/09 Q1014 NOSIG cycle: 14
Sunrise: 03:11 Sunset: 17:48 (UTC)

TAF:2018/05/20 12:44 TAF LWSK 201130Z 2012/2112 VRB02KT 9999 FEW040 BECMG 2018/2020 SCT040 BKN090 PROB40 TEMPO 2018/2023 SHRA FEW035TCU BKN040 BECMG 2109/2111 16010KT BKN040

Previous Pireps for this route
Date Aircraft Flight time Fuel used Landing rate On time
2012-09-09A32101.34-9115-1105No
2012-09-28A32101.1610170-273Yes
2012-10-26A32101.4910150-574Charter
2013-02-09A32101.2411588-164Yes
2013-08-19A3211.0080000No
2013-09-30A32101.3511762-273No
2014-05-12A32101.168038-238Yes
2014-11-15A3211.1377700Yes
2014-11-15A3211.1377700No
2015-04-02A32101.107459-425No
2016-05-21A3211,0060000Yes
2016-12-27A3211.1189460No
(pireps marked green are flown by you)

Route map